sensor_id;sensor_type;location;lat;lon;timestamp;pressure;altitude;pressure_sealevel;temperature;humidity
18500;BME280;9379;52.134;11.576;2023-06-14T00:01:42;101038.59;;;20.79;57.13
18500;BME280;9379;52.134;11.576;2023-06-14T00:04:10;101039.63;;;20.78;57.18
18500;BME280;9379;52.134;11.576;2023-06-14T00:06:38;101050.63;;;20.76;57.80
18500;BME280;9379;52.134;11.576;2023-06-14T00:09:06;101051.59;;;20.90;56.95
18500;BME280;9379;52.134;11.576;2023-06-14T00:11:34;101049.53;;;20.92;57.12
18500;BME280;9379;52.134;11.576;2023-06-14T00:14:01;101052.97;;;20.64;57.80
18500;BME280;9379;52.134;11.576;2023-06-14T00:16:30;101055.81;;;20.78;57.68
18500;BME280;9379;52.134;11.576;2023-06-14T00:18:58;101054.56;;;20.74;57.36
18500;BME280;9379;52.134;11.576;2023-06-14T00:21:25;101036.00;;;20.49;58.11
18500;BME280;9379;52.134;11.576;2023-06-14T00:23:55;101049.19;;;20.29;59.14
18500;BME280;9379;52.134;11.576;2023-06-14T00:26:21;101052.69;;;20.59;57.47
18500;BME280;9379;52.134;11.576;2023-06-14T00:28:48;101058.41;;;20.35;58.68
18500;BME280;9379;52.134;11.576;2023-06-14T00:31:15;101060.44;;;20.62;57.87
18500;BME280;9379;52.134;11.576;2023-06-14T00:33:43;101034.41;;;20.76;57.73
18500;BME280;9379;52.134;11.576;2023-06-14T00:36:10;101045.72;;;20.65;58.06
18500;BME280;9379;52.134;11.576;2023-06-14T00:38:37;101045.56;;;20.22;59.48
18500;BME280;9379;52.134;11.576;2023-06-14T00:41:04;101052.19;;;20.49;58.58
18500;BME280;9379;52.134;11.576;2023-06-14T00:43:31;101049.38;;;20.28;59.49
18500;BME280;9379;52.134;11.576;2023-06-14T00:45:58;101056.56;;;20.06;59.52
18500;BME280;9379;52.134;11.576;2023-06-14T00:48:24;101058.28;;;20.58;58.27
18500;BME280;9379;52.134;11.576;2023-06-14T00:50:54;101049.91;;;20.67;58.68
18500;BME280;9379;52.134;11.576;2023-06-14T00:53:21;101047.03;;;20.25;60.03
18500;BME280;9379;52.134;11.576;2023-06-14T00:55:50;101052.09;;;20.43;59.24
18500;BME280;9379;52.134;11.576;2023-06-14T00:58:17;101045.09;;;20.33;59.19
18500;BME280;9379;52.134;11.576;2023-06-14T01:00:44;101050.22;;;20.43;59.04
18500;BME280;9379;52.134;11.576;2023-06-14T01:03:10;101061.56;;;20.24;60.18
18500;BME280;9379;52.134;11.576;2023-06-14T01:05:38;101055.03;;;20.33;59.36
18500;BME280;9379;52.134;11.576;2023-06-14T01:08:22;101062.41;;;20.39;59.08
18500;BME280;9379;52.134;11.576;2023-06-14T01:10:54;101060.84;;;20.30;59.52
18500;BME280;9379;52.134;11.576;2023-06-14T01:13:28;101065.47;;;20.36;59.69
18500;BME280;9379;52.134;11.576;2023-06-14T01:15:55;101068.09;;;20.44;59.60
18500;BME280;9379;52.134;11.576;2023-06-14T01:18:22;101039.97;;;20.53;57.99
18500;BME280;9379;52.134;11.576;2023-06-14T01:20:51;101053.47;;;20.09;60.07
18500;BME280;9379;52.134;11.576;2023-06-14T01:23:23;101043.44;;;20.03;60.70
18500;BME280;9379;52.134;11.576;2023-06-14T01:25:50;101058.31;;;20.14;60.31
18500;BME280;9379;52.134;11.576;2023-06-14T01:28:20;101062.78;;;20.21;60.03
18500;BME280;9379;52.134;11.576;2023-06-14T01:30:49;101055.97;;;20.25;59.59
18500;BME280;9379;52.134;11.576;2023-06-14T01:33:20;101061.94;;;20.35;59.59
18500;BME280;9379;52.134;11.576;2023-06-14T01:35:50;101059.44;;;20.04;60.72
18500;BME280;9379;52.134;11.576;2023-06-14T01:38:18;101061.28;;;20.33;59.76
18500;BME280;9379;52.134;11.576;2023-06-14T01:40:47;101059.16;;;20.14;60.17
18500;BME280;9379;52.134;11.576;2023-06-14T01:43:16;101057.59;;;20.05;60.88
18500;BME280;9379;52.134;11.576;2023-06-14T01:45:45;101042.59;;;19.88;61.69
18500;BME280;9379;52.134;11.576;2023-06-14T01:48:14;101055.63;;;20.28;60.62
18500;BME280;9379;52.134;11.576;2023-06-14T01:50:41;101058.88;;;20.24;60.55
18500;BME280;9379;52.134;11.576;2023-06-14T01:53:09;101062.72;;;20.15;60.40
18500;BME280;9379;52.134;11.576;2023-06-14T01:55:36;101066.69;;;19.51;62.15
18500;BME280;9379;52.134;11.576;2023-06-14T01:58:05;101071.69;;;19.77;61.51
18500;BME280;9379;52.134;11.576;2023-06-14T02:00:31;101063.13;;;19.74;61.87
18500;BME280;9379;52.134;11.576;2023-06-14T02:02:58;101068.06;;;19.70;61.93
18500;BME280;9379;52.134;11.576;2023-06-14T02:05:25;101073.91;;;19.36;62.80
18500;BME280;9379;52.134;11.576;2023-06-14T02:07:52;101078.94;;;19.39;62.92
18500;BME280;9379;52.134;11.576;2023-06-14T02:10:20;101069.00;;;19.17;63.68
18500;BME280;9379;52.134;11.576;2023-06-14T02:12:47;101078.63;;;18.88;64.64
18500;BME280;9379;52.134;11.576;2023-06-14T02:15:15;101075.25;;;19.93;61.87
18500;BME280;9379;52.134;11.576;2023-06-14T02:17:44;101073.81;;;19.44;63.04
18500;BME280;9379;52.134;11.576;2023-06-14T02:20:12;101083.75;;;19.44;62.65
18500;BME280;9379;52.134;11.576;2023-06-14T02:22:40;101071.22;;;19.36;63.39
18500;BME280;9379;52.134;11.576;2023-06-14T02:25:07;101075.16;;;19.26;63.87
18500;BME280;9379;52.134;11.576;2023-06-14T02:27:34;101083.59;;;19.45;62.94
18500;BME280;9379;52.134;11.576;2023-06-14T02:30:01;101073.81;;;19.67;62.28
18500;BME280;9379;52.134;11.576;2023-06-14T02:32:29;101075.63;;;19.52;63.22
18500;BME280;9379;52.134;11.576;2023-06-14T02:34:57;101073.56;;;19.54;63.62
18500;BME280;9379;52.134;11.576;2023-06-14T02:37:23;101061.84;;;19.47;62.88
18500;BME280;9379;52.134;11.576;2023-06-14T02:39:50;101079.72;;;19.25;64.16
18500;BME280;9379;52.134;11.576;2023-06-14T02:42:17;101075.16;;;19.26;64.22
18500;BME280;9379;52.134;11.576;2023-06-14T02:44:44;101083.47;;;19.39;63.91
18500;BME280;9379;52.134;11.576;2023-06-14T02:47:12;101079.94;;;19.38;64.05
18500;BME280;9379;52.134;11.576;2023-06-14T02:49:40;101090.25;;;19.35;64.42
18500;BME280;9379;52.134;11.576;2023-06-14T02:52:06;101085.19;;;19.77;62.89
18500;BME280;9379;52.134;11.576;2023-06-14T02:54:34;101088.81;;;19.47;64.39
18500;BME280;9379;52.134;11.576;2023-06-14T02:57:01;101096.13;;;19.38;64.65
18500;BME280;9379;52.134;11.576;2023-06-14T02:59:28;101083.84;;;19.36;63.77
18500;BME280;9379;52.134;11.576;2023-06-14T03:01:55;101086.50;;;19.81;63.39
18500;BME280;9379;52.134;11.576;2023-06-14T03:04:23;101099.88;;;19.29;64.55
18500;BME280;9379;52.134;11.576;2023-06-14T03:06:52;101101.22;;;19.56;63.58
18500;BME280;9379;52.134;11.576;2023-06-14T03:09:19;101093.47;;;19.30;64.10
18500;BME280;9379;52.134;11.576;2023-06-14T03:11:46;101094.88;;;18.72;66.29
18500;BME280;9379;52.134;11.576;2023-06-14T03:14:13;101097.75;;;19.24;64.97
18500;BME280;9379;52.134;11.576;2023-06-14T03:16:40;101108.28;;;19.34;64.47
18500;BME280;9379;52.134;11.576;2023-06-14T03:19:08;101102.91;;;18.80;66.05
18500;BME280;9379;52.134;11.576;2023-06-14T03:21:34;101099.28;;;18.96;65.39
18500;BME280;9379;52.134;11.576;2023-06-14T03:24:03;101104.97;;;19.01;65.64
18500;BME280;9379;52.134;11.576;2023-06-14T03:26:30;101110.66;;;18.75;66.64
18500;BME280;9379;52.134;11.576;2023-06-14T03:28:59;101111.81;;;19.12;65.61
18500;BME280;9379;52.134;11.576;2023-06-14T03:31:28;101107.38;;;18.57;67.24
18500;BME280;9379;52.134;11.576;2023-06-14T03:33:58;101112.44;;;18.91;66.85
18500;BME280;9379;52.134;11.576;2023-06-14T03:36:25;101120.94;;;18.63;67.20
18500;BME280;9379;52.134;11.576;2023-06-14T03:38:51;101124.69;;;19.02;66.53
18500;BME280;9379;52.134;11.576;2023-06-14T03:41:19;101125.75;;;18.84;66.49
18500;BME280;9379;52.134;11.576;2023-06-14T03:43:46;101129.47;;;18.83;66.74
18500;BME280;9379;52.134;11.576;2023-06-14T03:46:13;101124.63;;;18.23;69.09
18500;BME280;9379;52.134;11.576;2023-06-14T03:48:40;101122.50;;;18.66;68.27
18500;BME280;9379;52.134;11.576;2023-06-14T03:51:06;101131.41;;;18.98;67.30
18500;BME280;9379;52.134;11.576;2023-06-14T03:53:33;101138.53;;;18.90;67.13
18500;BME280;9379;52.134;11.576;2023-06-14T03:56:01;101136.72;;;19.14;66.07
18500;BME280;9379;52.134;11.576;2023-06-14T03:58:29;101137.00;;;19.19;66.31
18500;BME280;9379;52.134;11.576;2023-06-14T04:00:56;101137.69;;;18.90;66.98
18500;BME280;9379;52.134;11.576;2023-06-14T04:03:22;101140.03;;;19.24;66.84
18500;BME280;9379;52.134;11.576;2023-06-14T04:05:50;101141.88;;;18.92;68.01
18500;BME280;9379;52.134;11.576;2023-06-14T04:08:22;101141.69;;;18.55;69.37
18500;BME280;9379;52.134;11.576;2023-06-14T04:10:50;101141.66;;;18.71;69.09
18500;BME280;9379;52.134;11.576;2023-06-14T04:13:16;101138.47;;;18.59;70.20
18500;BME280;9379;52.134;11.576;2023-06-14T04:15:45;101137.13;;;19.03;68.48
18500;BME280;9379;52.134;11.576;2023-06-14T04:18:13;101138.03;;;18.87;68.96
18500;BME280;9379;52.134;11.576;2023-06-14T04:20:40;101141.03;;;19.00;68.83
18500;BME280;9379;52.134;11.576;2023-06-14T04:23:13;101148.34;;;18.75;69.61
18500;BME280;9379;52.134;11.576;2023-06-14T04:25:40;101148.06;;;18.70;69.48
18500;BME280;9379;52.134;11.576;2023-06-14T04:28:10;101150.94;;;18.69;69.63
18500;BME280;9379;52.134;11.576;2023-06-14T04:30:37;101155.28;;;18.78;69.32
18500;BME280;9379;52.134;11.576;2023-06-14T04:33:05;101151.00;;;19.22;68.11
18500;BME280;9379;52.134;11.576;2023-06-14T04:35:32;101154.69;;;19.44;67.96
18500;BME280;9379;52.134;11.576;2023-06-14T04:38:01;101156.53;;;19.21;68.32
18500;BME280;9379;52.134;11.576;2023-06-14T04:40:30;101161.41;;;18.94;69.50
18500;BME280;9379;52.134;11.576;2023-06-14T04:42:56;101147.47;;;18.91;68.82
18500;BME280;9379;52.134;11.576;2023-06-14T04:45:23;101159.63;;;19.10;68.73
18500;BME280;9379;52.134;11.576;2023-06-14T04:47:58;101160.63;;;19.40;67.87
18500;BME280;9379;52.134;11.576;2023-06-14T04:50:26;101153.38;;;19.17;68.62
18500;BME280;9379;52.134;11.576;2023-06-14T04:52:55;101155.25;;;19.09;68.75
18500;BME280;9379;52.134;11.576;2023-06-14T04:55:22;101150.06;;;19.61;66.97
18500;BME280;9379;52.134;11.576;2023-06-14T04:57:50;101164.97;;;19.72;66.97
18500;BME280;9379;52.134;11.576;2023-06-14T05:00:18;101161.03;;;19.60;67.31
18500;BME280;9379;52.134;11.576;2023-06-14T05:02:45;101152.50;;;19.71;67.75
18500;BME280;9379;52.134;11.576;2023-06-14T05:05:14;101155.44;;;19.84;67.27
18500;BME280;9379;52.134;11.576;2023-06-14T05:07:42;101172.66;;;19.52;68.06
18500;BME280;9379;52.134;11.576;2023-06-14T05:10:09;101160.81;;;19.38;69.32
18500;BME280;9379;52.134;11.576;2023-06-14T05:12:36;101167.06;;;19.62;68.42
18500;BME280;9379;52.134;11.576;2023-06-14T05:15:04;101162.34;;;19.33;68.85
18500;BME280;9379;52.134;11.576;2023-06-14T05:17:31;101150.34;;;18.89;69.82
18500;BME280;9379;52.134;11.576;2023-06-14T05:19:57;101162.72;;;19.52;69.35
18500;BME280;9379;52.134;11.576;2023-06-14T05:22:24;101167.13;;;19.76;67.83
18500;BME280;9379;52.134;11.576;2023-06-14T05:24:52;101174.25;;;19.92;68.01
18500;BME280;9379;52.134;11.576;2023-06-14T05:27:19;101172.69;;;20.13;67.33
18500;BME280;9379;52.134;11.576;2023-06-14T05:29:46;101175.44;;;19.90;67.68
18500;BME280;9379;52.134;11.576;2023-06-14T05:32:13;101173.03;;;19.95;67.82
18500;BME280;9379;52.134;11.576;2023-06-14T05:34:40;101170.81;;;19.98;68.27
18500;BME280;9379;52.134;11.576;2023-06-14T05:37:06;101151.84;;;20.21;66.08
18500;BME280;9379;52.134;11.576;2023-06-14T05:39:33;101172.94;;;20.55;65.84
18500;BME280;9379;52.134;11.576;2023-06-14T05:42:02;101174.88;;;20.47;66.59
18500;BME280;9379;52.134;11.576;2023-06-14T05:44:28;101176.41;;;20.49;66.44
18500;BME280;9379;52.134;11.576;2023-06-14T05:46:55;101171.06;;;20.85;65.32
18500;BME280;9379;52.134;11.576;2023-06-14T05:49:22;101172.94;;;20.85;65.28
18500;BME280;9379;52.134;11.576;2023-06-14T05:51:48;101171.28;;;20.54;65.71
18500;BME280;9379;52.134;11.576;2023-06-14T05:54:15;101168.81;;;21.25;64.73
18500;BME280;9379;52.134;11.576;2023-06-14T05:56:42;101174.81;;;21.06;64.68
18500;BME280;9379;52.134;11.576;2023-06-14T05:59:10;101180.97;;;21.14;64.06
18500;BME280;9379;52.134;11.576;2023-06-14T06:01:37;101175.22;;;21.39;63.33
18500;BME280;9379;52.134;11.576;2023-06-14T06:04:05;101195.25;;;20.93;64.73
18500;BME280;9379;52.134;11.576;2023-06-14T06:06:32;101183.66;;;21.14;64.35
18500;BME280;9379;52.134;11.576;2023-06-14T06:08:58;101190.28;;;20.61;65.76
18500;BME280;9379;52.134;11.576;2023-06-14T06:11:25;101193.22;;;20.81;65.53
18500;BME280;9379;52.134;11.576;2023-06-14T06:13:52;101195.00;;;20.88;64.97
18500;BME280;9379;52.134;11.576;2023-06-14T06:16:20;101197.25;;;20.85;65.32
18500;BME280;9379;52.134;11.576;2023-06-14T06:18:47;101190.25;;;20.76;66.28
18500;BME280;9379;52.134;11.576;2023-06-14T06:21:14;101194.34;;;20.86;65.98
18500;BME280;9379;52.134;11.576;2023-06-14T06:23:41;101203.63;;;21.13;65.15
18500;BME280;9379;52.134;11.576;2023-06-14T06:26:07;101197.31;;;21.85;61.67
18500;BME280;9379;52.134;11.576;2023-06-14T06:28:34;101194.13;;;23.54;57.35
18500;BME280;9379;52.134;11.576;2023-06-14T06:31:02;101193.81;;;23.10;57.27
18500;BME280;9379;52.134;11.576;2023-06-14T06:33:33;101199.91;;;21.93;59.46
18500;BME280;9379;52.134;11.576;2023-06-14T06:36:02;101195.41;;;22.00;60.22
18500;BME280;9379;52.134;11.576;2023-06-14T06:38:30;101208.72;;;22.23;60.23
18500;BME280;9379;52.134;11.576;2023-06-14T06:40:59;101206.00;;;22.51;58.42
18500;BME280;9379;52.134;11.576;2023-06-14T06:43:29;101209.59;;;22.58;58.39
18500;BME280;9379;52.134;11.576;2023-06-14T06:45:58;101211.22;;;22.25;59.80
18500;BME280;9379;52.134;11.576;2023-06-14T06:48:28;101211.22;;;22.25;60.23
18500;BME280;9379;52.134;11.576;2023-06-14T06:50:59;101223.63;;;22.12;59.72
18500;BME280;9379;52.134;11.576;2023-06-14T06:53:28;101219.88;;;21.49;60.21
18500;BME280;9379;52.134;11.576;2023-06-14T06:55:58;101217.88;;;22.57;58.57
18500;BME280;9379;52.134;11.576;2023-06-14T06:58:27;101207.22;;;22.49;58.49
18500;BME280;9379;52.134;11.576;2023-06-14T07:00:57;101219.41;;;22.66;58.90
18500;BME280;9379;52.134;11.576;2023-06-14T07:03:26;101221.16;;;22.18;58.26
18500;BME280;9379;52.134;11.576;2023-06-14T07:05:56;101213.75;;;22.61;56.70
18500;BME280;9379;52.134;11.576;2023-06-14T07:08:28;101207.59;;;22.46;57.26
18500;BME280;9379;52.134;11.576;2023-06-14T07:10:57;101209.53;;;22.52;57.85
18500;BME280;9379;52.134;11.576;2023-06-14T07:13:26;101203.34;;;22.99;56.67
18500;BME280;9379;52.134;11.576;2023-06-14T07:15:58;101222.09;;;22.59;56.95
18500;BME280;9379;52.134;11.576;2023-06-14T07:18:27;101226.75;;;22.37;57.13
18500;BME280;9379;52.134;11.576;2023-06-14T07:20:55;101225.09;;;21.94;58.38
18500;BME280;9379;52.134;11.576;2023-06-14T07:23:22;101215.19;;;22.01;58.46
18500;BME280;9379;52.134;11.576;2023-06-14T07:25:50;101210.50;;;22.72;56.97
18500;BME280;9379;52.134;11.576;2023-06-14T07:28:17;101218.81;;;23.66;55.16
18500;BME280;9379;52.134;11.576;2023-06-14T07:30:44;101227.53;;;22.10;56.85
18500;BME280;9379;52.134;11.576;2023-06-14T07:33:11;101212.84;;;21.76;58.06
18500;BME280;9379;52.134;11.576;2023-06-14T07:35:38;101228.75;;;21.86;57.90
18500;BME280;9379;52.134;11.576;2023-06-14T07:38:05;101213.84;;;22.11;57.99
18500;BME280;9379;52.134;11.576;2023-06-14T07:40:32;101212.47;;;22.57;56.76
18500;BME280;9379;52.134;11.576;2023-06-14T07:43:00;101214.75;;;22.53;57.27
18500;BME280;9379;52.134;11.576;2023-06-14T07:45:27;101228.00;;;22.76;55.90
18500;BME280;9379;52.134;11.576;2023-06-14T07:47:54;101228.84;;;22.42;56.60
18500;BME280;9379;52.134;11.576;2023-06-14T07:50:22;101223.88;;;22.18;57.56
18500;BME280;9379;52.134;11.576;2023-06-14T07:52:48;101215.44;;;22.06;57.77
18500;BME280;9379;52.134;11.576;2023-06-14T07:55:15;101221.97;;;22.39;56.48
18500;BME280;9379;52.134;11.576;2023-06-14T07:57:42;101209.28;;;23.16;54.50
18500;BME280;9379;52.134;11.576;2023-06-14T08:00:12;101208.47;;;22.46;55.77
18500;BME280;9379;52.134;11.576;2023-06-14T08:02:41;101218.56;;;22.93;54.93
18500;BME280;9379;52.134;11.576;2023-06-14T08:05:09;101211.53;;;23.06;53.98
18500;BME280;9379;52.134;11.576;2023-06-14T08:07:36;101210.19;;;23.49;54.06
18500;BME280;9379;52.134;11.576;2023-06-14T08:10:03;101215.00;;;23.54;54.07
18500;BME280;9379;52.134;11.576;2023-06-14T08:12:30;101205.91;;;23.75;53.45
18500;BME280;9379;52.134;11.576;2023-06-14T08:14:57;101208.41;;;23.90;53.71
18500;BME280;9379;52.134;11.576;2023-06-14T08:17:25;101211.13;;;24.36;52.84
18500;BME280;9379;52.134;11.576;2023-06-14T08:19:51;101215.94;;;23.88;52.70
18500;BME280;9379;52.134;11.576;2023-06-14T08:22:20;101211.75;;;24.38;51.98
18500;BME280;9379;52.134;11.576;2023-06-14T08:24:47;101204.84;;;24.22;53.15
18500;BME280;9379;52.134;11.576;2023-06-14T08:27:13;101211.47;;;24.79;51.85
18500;BME280;9379;52.134;11.576;2023-06-14T08:29:41;101205.44;;;25.22;51.04
18500;BME280;9379;52.134;11.576;2023-06-14T08:32:07;101211.47;;;24.79;51.46
18500;BME280;9379;52.134;11.576;2023-06-14T08:34:36;101206.72;;;25.19;50.93
18500;BME280;9379;52.134;11.576;2023-06-14T08:37:03;101204.03;;;24.99;50.17
18500;BME280;9379;52.134;11.576;2023-06-14T08:39:30;101203.66;;;25.47;51.18
18500;BME280;9379;52.134;11.576;2023-06-14T08:41:57;101207.97;;;25.55;49.91
18500;BME280;9379;52.134;11.576;2023-06-14T08:44:24;101192.91;;;25.52;49.75
18500;BME280;9379;52.134;11.576;2023-06-14T08:46:51;101199.53;;;25.70;49.63
18500;BME280;9379;52.134;11.576;2023-06-14T08:49:19;101211.00;;;25.02;50.83
18500;BME280;9379;52.134;11.576;2023-06-14T08:51:50;101204.47;;;24.96;51.00
18500;BME280;9379;52.134;11.576;2023-06-14T08:54:19;101210.56;;;25.05;50.73
18500;BME280;9379;52.134;11.576;2023-06-14T08:56:46;101202.44;;;24.85;51.17
18500;BME280;9379;52.134;11.576;2023-06-14T08:59:14;101211.25;;;24.81;52.00
18500;BME280;9379;52.134;11.576;2023-06-14T09:01:44;101208.66;;;24.99;51.01
18500;BME280;9379;52.134;11.576;2023-06-14T09:04:13;101210.25;;;24.29;52.22
18500;BME280;9379;52.134;11.576;2023-06-14T09:06:39;101207.88;;;24.85;51.60
18500;BME280;9379;52.134;11.576;2023-06-14T09:09:08;101207.91;;;24.65;52.59
18500;BME280;9379;52.134;11.576;2023-06-14T09:11:35;101202.25;;;25.31;50.90
18500;BME280;9379;52.134;11.576;2023-06-14T09:14:02;101210.91;;;25.53;51.05
18500;BME280;9379;52.134;11.576;2023-06-14T09:16:28;101207.34;;;25.59;50.82
18500;BME280;9379;52.134;11.576;2023-06-14T09:18:56;101199.28;;;25.40;50.07
18500;BME280;9379;52.134;11.576;2023-06-14T09:21:22;101207.44;;;25.40;50.67
18500;BME280;9379;52.134;11.576;2023-06-14T09:23:50;101211.69;;;25.29;50.75
18500;BME280;9379;52.134;11.576;2023-06-14T09:26:18;101207.75;;;25.56;50.79
18500;BME280;9379;52.134;11.576;2023-06-14T09:28:46;101215.47;;;25.28;50.89
18500;BME280;9379;52.134;11.576;2023-06-14T09:31:14;101204.63;;;25.53;51.48
18500;BME280;9379;52.134;11.576;2023-06-14T09:33:41;101210.94;;;25.15;51.52
18500;BME280;9379;52.134;11.576;2023-06-14T09:36:15;101204.31;;;25.74;51.34
18500;BME280;9379;52.134;11.576;2023-06-14T09:38:43;101221.69;;;26.05;50.55
18500;BME280;9379;52.134;11.576;2023-06-14T09:41:19;101213.22;;;25.88;50.05
18500;BME280;9379;52.134;11.576;2023-06-14T09:43:46;101219.53;;;25.06;51.78
18500;BME280;9379;52.134;11.576;2023-06-14T09:46:15;101220.63;;;24.91;51.55
18500;BME280;9379;52.134;11.576;2023-06-14T09:48:42;101218.63;;;25.56;50.85
18500;BME280;9379;52.134;11.576;2023-06-14T09:51:10;101208.84;;;26.37;50.34
18500;BME280;9379;52.134;11.576;2023-06-14T09:53:41;101196.44;;;25.91;50.74
18500;BME280;9379;52.134;11.576;2023-06-14T09:56:10;101185.31;;;26.17;50.87
18500;BME280;9379;52.134;11.576;2023-06-14T09:58:39;101206.84;;;26.01;50.15
18500;BME280;9379;52.134;11.576;2023-06-14T10:01:08;101199.16;;;26.41;50.69
18500;BME280;9379;52.134;11.576;2023-06-14T10:03:39;101192.19;;;26.82;48.76
18500;BME280;9379;52.134;11.576;2023-06-14T10:06:08;101193.44;;;27.04;48.89
18500;BME280;9379;52.134;11.576;2023-06-14T10:08:36;101197.00;;;25.75;51.28
18500;BME280;9379;52.134;11.576;2023-06-14T10:11:04;101193.78;;;26.09;50.93
18500;BME280;9379;52.134;11.576;2023-06-14T10:13:32;101199.88;;;25.80;51.50
18500;BME280;9379;52.134;11.576;2023-06-14T10:16:07;101195.38;;;25.29;52.03
18500;BME280;9379;52.134;11.576;2023-06-14T10:18:43;101185.09;;;25.63;51.55
18500;BME280;9379;52.134;11.576;2023-06-14T10:21:18;101189.63;;;25.82;50.81
18500;BME280;9379;52.134;11.576;2023-06-14T10:23:49;101188.16;;;25.48;51.22
18500;BME280;9379;52.134;11.576;2023-06-14T10:26:20;101179.63;;;25.38;52.13
18500;BME280;9379;52.134;11.576;2023-06-14T10:28:57;101174.00;;;25.96;50.99
18500;BME280;9379;52.134;11.576;2023-06-14T10:34:25;101175.47;;;25.92;51.54
18500;BME280;9379;52.134;11.576;2023-06-14T10:37:03;101168.78;;;26.12;51.45
18500;BME280;9379;52.134;11.576;2023-06-14T10:39:31;101177.34;;;27.44;49.62
18500;BME280;9379;52.134;11.576;2023-06-14T10:42:01;101174.75;;;27.49;48.38
18500;BME280;9379;52.134;11.576;2023-06-14T10:44:43;101165.84;;;27.12;47.67
18500;BME280;9379;52.134;11.576;2023-06-14T10:47:20;101171.34;;;27.66;48.30
18500;BME280;9379;52.134;11.576;2023-06-14T10:49:50;101164.00;;;27.06;49.04
18500;BME280;9379;52.134;11.576;2023-06-14T10:52:22;101175.31;;;25.86;50.62
18500;BME280;9379;52.134;11.576;2023-06-14T10:55:06;101173.03;;;26.88;50.01
18500;BME280;9379;52.134;11.576;2023-06-14T10:57:37;101168.28;;;26.22;49.60
18500;BME280;9379;52.134;11.576;2023-06-14T11:00:05;101176.47;;;26.22;49.91
18500;BME280;9379;52.134;11.576;2023-06-14T11:03:13;101162.72;;;26.90;48.54
18500;BME280;9379;52.134;11.576;2023-06-14T11:05:52;101153.81;;;27.85;48.19
18500;BME280;9379;52.134;11.576;2023-06-14T11:08:33;101157.00;;;27.70;47.65
18500;BME280;9379;52.134;11.576;2023-06-14T11:11:06;101152.16;;;28.07;48.00
18500;BME280;9379;52.134;11.576;2023-06-14T11:13:34;101149.31;;;27.07;48.06
18500;BME280;9379;52.134;11.576;2023-06-14T11:16:10;101151.78;;;26.17;49.80
18500;BME280;9379;52.134;11.576;2023-06-14T11:18:37;101143.72;;;27.44;48.51
18500;BME280;9379;52.134;11.576;2023-06-14T11:21:05;101148.72;;;28.00;47.07
18500;BME280;9379;52.134;11.576;2023-06-14T11:23:32;101140.53;;;26.87;48.20
18500;BME280;9379;52.134;11.576;2023-06-14T11:25:59;101142.56;;;26.91;49.04
18500;BME280;9379;52.134;11.576;2023-06-14T11:28:35;101137.19;;;27.75;48.21
18500;BME280;9379;52.134;11.576;2023-06-14T11:31:03;101134.19;;;27.65;47.91
18500;BME280;9379;52.134;11.576;2023-06-14T11:33:30;101133.03;;;28.42;47.07
18500;BME280;9379;52.134;11.576;2023-06-14T11:35:56;101117.81;;;28.35;45.76
18500;BME280;9379;52.134;11.576;2023-06-14T11:38:25;101134.38;;;27.51;46.40
18500;BME280;9379;52.134;11.576;2023-06-14T11:40:51;101136.16;;;27.46;47.71
18500;BME280;9379;52.134;11.576;2023-06-14T11:43:18;101125.75;;;27.78;45.81
18500;BME280;9379;52.134;11.576;2023-06-14T11:45:48;101133.75;;;28.03;45.44
18500;BME280;9379;52.134;11.576;2023-06-14T11:48:15;101130.66;;;27.87;46.02
18500;BME280;9379;52.134;11.576;2023-06-14T11:50:42;101126.59;;;27.67;46.68
18500;BME280;9379;52.134;11.576;2023-06-14T11:53:08;101137.16;;;26.11;48.42
18500;BME280;9379;52.134;11.576;2023-06-14T11:55:38;101137.31;;;25.42;49.50
18500;BME280;9379;52.134;11.576;2023-06-14T11:58:06;101133.78;;;25.35;49.92
18500;BME280;9379;52.134;11.576;2023-06-14T12:00:35;101116.78;;;25.96;49.35
18500;BME280;9379;52.134;11.576;2023-06-14T12:03:02;101113.03;;;27.18;47.03
18500;BME280;9379;52.134;11.576;2023-06-14T12:05:29;101118.50;;;26.33;47.96
18500;BME280;9379;52.134;11.576;2023-06-14T12:07:58;101131.63;;;26.00;48.61
18500;BME280;9379;52.134;11.576;2023-06-14T12:10:26;101121.38;;;26.20;49.08
18500;BME280;9379;52.134;11.576;2023-06-14T12:12:58;101133.16;;;25.71;48.86
18500;BME280;9379;52.134;11.576;2023-06-14T12:15:28;101114.28;;;26.37;48.37
18500;BME280;9379;52.134;11.576;2023-06-14T12:17:55;101125.22;;;26.31;48.26
18500;BME280;9379;52.134;11.576;2023-06-14T12:20:22;101128.50;;;26.39;48.08
18500;BME280;9379;52.134;11.576;2023-06-14T12:22:53;101124.53;;;26.35;48.04
18500;BME280;9379;52.134;11.576;2023-06-14T12:25:27;101125.16;;;26.19;47.70
18500;BME280;9379;52.134;11.576;2023-06-14T12:27:57;101110.00;;;26.23;48.48
18500;BME280;9379;52.134;11.576;2023-06-14T12:30:24;101112.44;;;26.50;47.74
18500;BME280;9379;52.134;11.576;2023-06-14T12:32:51;101102.44;;;27.52;46.45
18500;BME280;9379;52.134;11.576;2023-06-14T12:35:18;101093.69;;;28.20;45.55
18500;BME280;9379;52.134;11.576;2023-06-14T12:37:45;101106.03;;;28.46;45.22
18500;BME280;9379;52.134;11.576;2023-06-14T12:40:12;101107.84;;;27.28;45.88
18500;BME280;9379;52.134;11.576;2023-06-14T12:42:39;101108.47;;;26.82;47.47
18500;BME280;9379;52.134;11.576;2023-06-14T12:45:08;101108.47;;;26.52;47.71
18500;BME280;9379;52.134;11.576;2023-06-14T12:47:36;101105.94;;;26.69;47.22
18500;BME280;9379;52.134;11.576;2023-06-14T12:50:03;101111.19;;;26.52;47.90
18500;BME280;9379;52.134;11.576;2023-06-14T12:52:30;101111.06;;;25.79;48.42
18500;BME280;9379;52.134;11.576;2023-06-14T12:54:56;101108.66;;;26.51;47.17
18500;BME280;9379;52.134;11.576;2023-06-14T12:57:23;101099.34;;;26.77;46.13
18500;BME280;9379;52.134;11.576;2023-06-14T12:59:50;101106.13;;;26.12;47.45